<?xml version="1.0" encoding="UTF-8" standalone="no" ?>
<gpx xmlns="http://www.topografix.com/GPX/1/1" xmlns:xsi="http://www.w3.org/2001/XMLSchema-instance" xsi:schemaLocation="http://www.topografix.com/GPX/1/1 http://www.topografix.com/GPX/1/1/gpx.xsd" version="1.1" creator="VisuGPX - https://www.visugpx.com">
  <metadata>
    <name>Autour du Cap Fréhel</name>
    <desc><![CDATA[Rando facile au départ du parking du phare du Cap Fréhel.]]></desc>
  </metadata>
  <trk>
    <name><![CDATA[11388034-Autour du Cap Fréhel]]></name>
    <trkseg>
      <trkpt lat="48.68217" lon="-2.31791">
        <ele>66</ele>
        <time>2020-05-30T16:09:04Z</time>
      </trkpt>
      <trkpt lat="48.68265" lon="-2.31842">
        <ele>68</ele>
        <time>2020-05-30T16:09:51Z</time>
      </trkpt>
      <trkpt lat="48.6835" lon="-2.3187">
        <ele>67</ele>
        <time>2020-05-30T16:11:01Z</time>
      </trkpt>
      <trkpt lat="48.68394" lon="-2.31905">
        <ele>66</ele>
        <time>2020-05-30T16:11:40Z</time>
      </trkpt>
      <trkpt lat="48.68435" lon="-2.31904">
        <ele>61</ele>
        <time>2020-05-30T16:12:13Z</time>
      </trkpt>
      <trkpt lat="48.68486" lon="-2.31851">
        <ele>57</ele>
        <time>2020-05-30T16:13:03Z</time>
      </trkpt>
      <trkpt lat="48.68579" lon="-2.3174">
        <ele>55</ele>
        <time>2020-05-30T16:14:38Z</time>
      </trkpt>
      <trkpt lat="48.68755" lon="-2.31776">
        <ele>31</ele>
        <time>2020-05-30T16:17:00Z</time>
      </trkpt>
      <trkpt lat="48.6877" lon="-2.31738">
        <ele>27</ele>
        <time>2020-05-30T16:17:23Z</time>
      </trkpt>
      <trkpt lat="48.68748" lon="-2.31697">
        <ele>24</ele>
        <time>2020-05-30T16:17:51Z</time>
      </trkpt>
      <trkpt lat="48.68668" lon="-2.3166">
        <ele>38</ele>
        <time>2020-05-30T16:18:58Z</time>
      </trkpt>
      <trkpt lat="48.68605" lon="-2.31645">
        <ele>44</ele>
        <time>2020-05-30T16:19:49Z</time>
      </trkpt>
      <trkpt lat="48.68563" lon="-2.31683">
        <ele>56</ele>
        <time>2020-05-30T16:20:28Z</time>
      </trkpt>
      <trkpt lat="48.68503" lon="-2.31635">
        <ele>55</ele>
        <time>2020-05-30T16:21:23Z</time>
      </trkpt>
      <trkpt lat="48.6849" lon="-2.31585">
        <ele>51</ele>
        <time>2020-05-30T16:21:51Z</time>
      </trkpt>
      <trkpt lat="48.68442" lon="-2.31526">
        <ele>44</ele>
        <time>2020-05-30T16:22:41Z</time>
      </trkpt>
      <trkpt lat="48.68405" lon="-2.31529">
        <ele>51</ele>
        <time>2020-05-30T16:23:10Z</time>
      </trkpt>
      <trkpt lat="48.68356" lon="-2.31513">
        <ele>53</ele>
        <time>2020-05-30T16:23:50Z</time>
      </trkpt>
      <trkpt lat="48.68316" lon="-2.31529">
        <ele>58</ele>
        <time>2020-05-30T16:24:23Z</time>
      </trkpt>
      <trkpt lat="48.68174" lon="-2.31439">
        <ele>54</ele>
        <time>2020-05-30T16:26:27Z</time>
      </trkpt>
      <trkpt lat="48.6803" lon="-2.31365">
        <ele>56</ele>
        <time>2020-05-30T16:28:28Z</time>
      </trkpt>
      <trkpt lat="48.67969" lon="-2.3134">
        <ele>56</ele>
        <time>2020-05-30T16:29:19Z</time>
      </trkpt>
      <trkpt lat="48.67958" lon="-2.31364">
        <ele>57</ele>
        <time>2020-05-30T16:29:34Z</time>
      </trkpt>
      <trkpt lat="48.67801" lon="-2.31446">
        <ele>56</ele>
        <time>2020-05-30T16:31:47Z</time>
      </trkpt>
      <trkpt lat="48.67672" lon="-2.31523">
        <ele>60</ele>
        <time>2020-05-30T16:33:38Z</time>
      </trkpt>
      <trkpt lat="48.67574" lon="-2.31529">
        <ele>51</ele>
        <time>2020-05-30T16:34:57Z</time>
      </trkpt>
      <trkpt lat="48.67496" lon="-2.31682">
        <ele>57</ele>
        <time>2020-05-30T16:36:39Z</time>
      </trkpt>
      <trkpt lat="48.67477" lon="-2.31646">
        <ele>57</ele>
        <time>2020-05-30T16:37:04Z</time>
      </trkpt>
      <trkpt lat="48.67484" lon="-2.31596">
        <ele>55</ele>
        <time>2020-05-30T16:37:31Z</time>
      </trkpt>
      <trkpt lat="48.67468" lon="-2.31603">
        <ele>56</ele>
        <time>2020-05-30T16:37:44Z</time>
      </trkpt>
      <trkpt lat="48.67469" lon="-2.31573">
        <ele>53</ele>
        <time>2020-05-30T16:38:00Z</time>
      </trkpt>
      <trkpt lat="48.6729" lon="-2.31522">
        <ele>60</ele>
        <time>2020-05-30T16:40:26Z</time>
      </trkpt>
      <trkpt lat="48.67246" lon="-2.31441">
        <ele>55</ele>
        <time>2020-05-30T16:41:21Z</time>
      </trkpt>
      <trkpt lat="48.67187" lon="-2.3136">
        <ele>49</ele>
        <time>2020-05-30T16:42:25Z</time>
      </trkpt>
      <trkpt lat="48.67144" lon="-2.31298">
        <ele>43</ele>
        <time>2020-05-30T16:43:12Z</time>
      </trkpt>
      <trkpt lat="48.67086" lon="-2.31268">
        <ele>55</ele>
        <time>2020-05-30T16:44:01Z</time>
      </trkpt>
      <trkpt lat="48.67027" lon="-2.31161">
        <ele>50</ele>
        <time>2020-05-30T16:45:15Z</time>
      </trkpt>
      <trkpt lat="48.66945" lon="-2.31163">
        <ele>62</ele>
        <time>2020-05-30T16:46:21Z</time>
      </trkpt>
      <trkpt lat="48.66969" lon="-2.31049">
        <ele>45</ele>
        <time>2020-05-30T16:47:24Z</time>
      </trkpt>
      <trkpt lat="48.66899" lon="-2.30903">
        <ele>53</ele>
        <time>2020-05-30T16:49:00Z</time>
      </trkpt>
      <trkpt lat="48.66846" lon="-2.30725">
        <ele>63</ele>
        <time>2020-05-30T16:50:43Z</time>
      </trkpt>
      <trkpt lat="48.66831" lon="-2.30634">
        <ele>63</ele>
        <time>2020-05-30T16:51:32Z</time>
      </trkpt>
      <trkpt lat="48.66795" lon="-2.30676">
        <ele>72</ele>
        <time>2020-05-30T16:52:09Z</time>
      </trkpt>
      <trkpt lat="48.66712" lon="-2.30655">
        <ele>79</ele>
        <time>2020-05-30T16:53:16Z</time>
      </trkpt>
      <trkpt lat="48.66752" lon="-2.30858">
        <ele>77</ele>
        <time>2020-05-30T16:55:08Z</time>
      </trkpt>
      <trkpt lat="48.66776" lon="-2.31197">
        <ele>72</ele>
        <time>2020-05-30T16:58:08Z</time>
      </trkpt>
      <trkpt lat="48.6673" lon="-2.31221">
        <ele>73</ele>
        <time>2020-05-30T16:58:47Z</time>
      </trkpt>
      <trkpt lat="48.66702" lon="-2.31346">
        <ele>73</ele>
        <time>2020-05-30T16:59:57Z</time>
      </trkpt>
      <trkpt lat="48.66741" lon="-2.31458">
        <ele>71</ele>
        <time>2020-05-30T17:01:04Z</time>
      </trkpt>
      <trkpt lat="48.66716" lon="-2.31589">
        <ele>71</ele>
        <time>2020-05-30T17:02:16Z</time>
      </trkpt>
      <trkpt lat="48.66698" lon="-2.3167">
        <ele>69</ele>
        <time>2020-05-30T17:03:01Z</time>
      </trkpt>
      <trkpt lat="48.66646" lon="-2.31777">
        <ele>68</ele>
        <time>2020-05-30T17:04:12Z</time>
      </trkpt>
      <trkpt lat="48.66582" lon="-2.31928">
        <ele>65</ele>
        <time>2020-05-30T17:05:47Z</time>
      </trkpt>
      <trkpt lat="48.66574" lon="-2.32075">
        <ele>63</ele>
        <time>2020-05-30T17:07:05Z</time>
      </trkpt>
      <trkpt lat="48.66527" lon="-2.32285">
        <ele>61</ele>
        <time>2020-05-30T17:09:02Z</time>
      </trkpt>
      <trkpt lat="48.66494" lon="-2.32359">
        <ele>60</ele>
        <time>2020-05-30T17:09:49Z</time>
      </trkpt>
      <trkpt lat="48.66425" lon="-2.32563">
        <ele>60</ele>
        <time>2020-05-30T17:11:50Z</time>
      </trkpt>
      <trkpt lat="48.66406" lon="-2.32642">
        <ele>59</ele>
        <time>2020-05-30T17:12:35Z</time>
      </trkpt>
      <trkpt lat="48.66698" lon="-2.32859">
        <ele>47</ele>
        <time>2020-05-30T17:16:55Z</time>
      </trkpt>
      <trkpt lat="48.66959" lon="-2.3305">
        <ele>50</ele>
        <time>2020-05-30T17:20:47Z</time>
      </trkpt>
      <trkpt lat="48.66993" lon="-2.33104">
        <ele>48</ele>
        <time>2020-05-30T17:21:27Z</time>
      </trkpt>
      <trkpt lat="48.6704" lon="-2.331">
        <ele>42</ele>
        <time>2020-05-30T17:22:04Z</time>
      </trkpt>
      <trkpt lat="48.67117" lon="-2.3306">
        <ele>32</ele>
        <time>2020-05-30T17:23:10Z</time>
      </trkpt>
      <trkpt lat="48.67169" lon="-2.32926">
        <ele>43</ele>
        <time>2020-05-30T17:24:32Z</time>
      </trkpt>
      <trkpt lat="48.67235" lon="-2.32821">
        <ele>41</ele>
        <time>2020-05-30T17:25:48Z</time>
      </trkpt>
      <trkpt lat="48.67279" lon="-2.32726">
        <ele>45</ele>
        <time>2020-05-30T17:26:50Z</time>
      </trkpt>
      <trkpt lat="48.67338" lon="-2.32676">
        <ele>50</ele>
        <time>2020-05-30T17:27:44Z</time>
      </trkpt>
      <trkpt lat="48.6748" lon="-2.32735">
        <ele>38</ele>
        <time>2020-05-30T17:29:42Z</time>
      </trkpt>
      <trkpt lat="48.67526" lon="-2.32684">
        <ele>48</ele>
        <time>2020-05-30T17:30:27Z</time>
      </trkpt>
      <trkpt lat="48.67598" lon="-2.32617">
        <ele>50</ele>
        <time>2020-05-30T17:31:35Z</time>
      </trkpt>
      <trkpt lat="48.67624" lon="-2.32616">
        <ele>50</ele>
        <time>2020-05-30T17:31:56Z</time>
      </trkpt>
      <trkpt lat="48.67605" lon="-2.32708">
        <ele>35</ele>
        <time>2020-05-30T17:32:47Z</time>
      </trkpt>
      <trkpt lat="48.6765" lon="-2.32619">
        <ele>49</ele>
        <time>2020-05-30T17:33:46Z</time>
      </trkpt>
      <trkpt lat="48.67682" lon="-2.32588">
        <ele>47</ele>
        <time>2020-05-30T17:34:17Z</time>
      </trkpt>
      <trkpt lat="48.67679" lon="-2.32564">
        <ele>49</ele>
        <time>2020-05-30T17:34:29Z</time>
      </trkpt>
      <trkpt lat="48.67758" lon="-2.3249">
        <ele>49</ele>
        <time>2020-05-30T17:35:44Z</time>
      </trkpt>
      <trkpt lat="48.6782" lon="-2.32487">
        <ele>47</ele>
        <time>2020-05-30T17:36:34Z</time>
      </trkpt>
      <trkpt lat="48.6786" lon="-2.32463">
        <ele>51</ele>
        <time>2020-05-30T17:37:08Z</time>
      </trkpt>
      <trkpt lat="48.67882" lon="-2.32493">
        <ele>48</ele>
        <time>2020-05-30T17:37:32Z</time>
      </trkpt>
      <trkpt lat="48.6791" lon="-2.32526">
        <ele>38</ele>
        <time>2020-05-30T17:38:00Z</time>
      </trkpt>
      <trkpt lat="48.67983" lon="-2.32553">
        <ele>41</ele>
        <time>2020-05-30T17:39:00Z</time>
      </trkpt>
      <trkpt lat="48.68069" lon="-2.32582">
        <ele>51</ele>
        <time>2020-05-30T17:40:11Z</time>
      </trkpt>
      <trkpt lat="48.68099" lon="-2.32574">
        <ele>52</ele>
        <time>2020-05-30T17:40:35Z</time>
      </trkpt>
      <trkpt lat="48.68077" lon="-2.32546">
        <ele>55</ele>
        <time>2020-05-30T17:40:58Z</time>
      </trkpt>
      <trkpt lat="48.68109" lon="-2.32383">
        <ele>47</ele>
        <time>2020-05-30T17:42:28Z</time>
      </trkpt>
      <trkpt lat="48.68157" lon="-2.32278">
        <ele>46</ele>
        <time>2020-05-30T17:43:36Z</time>
      </trkpt>
      <trkpt lat="48.68129" lon="-2.32239">
        <ele>57</ele>
        <time>2020-05-30T17:44:06Z</time>
      </trkpt>
      <trkpt lat="48.68149" lon="-2.32204">
        <ele>58</ele>
        <time>2020-05-30T17:44:31Z</time>
      </trkpt>
      <trkpt lat="48.68192" lon="-2.32207">
        <ele>53</ele>
        <time>2020-05-30T17:45:05Z</time>
      </trkpt>
      <trkpt lat="48.68255" lon="-2.32189">
        <ele>48</ele>
        <time>2020-05-30T17:45:56Z</time>
      </trkpt>
      <trkpt lat="48.68245" lon="-2.32162">
        <ele>58</ele>
        <time>2020-05-30T17:46:13Z</time>
      </trkpt>
      <trkpt lat="48.68214" lon="-2.32075">
        <ele>62</ele>
        <time>2020-05-30T17:47:05Z</time>
      </trkpt>
      <trkpt lat="48.68258" lon="-2.32012">
        <ele>61</ele>
        <time>2020-05-30T17:47:53Z</time>
      </trkpt>
      <trkpt lat="48.68307" lon="-2.31967">
        <ele>63</ele>
        <time>2020-05-30T17:48:39Z</time>
      </trkpt>
      <trkpt lat="48.68352" lon="-2.31968">
        <ele>60</ele>
        <time>2020-05-30T17:49:15Z</time>
      </trkpt>
      <trkpt lat="48.68349" lon="-2.3193">
        <ele>65</ele>
        <time>2020-05-30T17:49:36Z</time>
      </trkpt>
      <trkpt lat="48.6833" lon="-2.31926">
        <ele>66</ele>
        <time>2020-05-30T17:49:51Z</time>
      </trkpt>
      <trkpt lat="48.6833" lon="-2.31875">
        <ele>67</ele>
        <time>2020-05-30T17:50:18Z</time>
      </trkpt>
      <trkpt lat="48.68263" lon="-2.31852">
        <ele>67</ele>
        <time>2020-05-30T17:51:13Z</time>
      </trkpt>
      <trkpt lat="48.68208" lon="-2.31799">
        <ele>66</ele>
        <time>2020-05-30T17:52:05Z</time>
      </trkpt>
    </trkseg>
  </trk>
</gpx>